sensor_id;sensor_type;location;lat;lon;timestamp;temperature;humidity
18091;DHT22;9172;49.948;9.208;2024-03-06T00:00:06;7.40;99.90
18091;DHT22;9172;49.948;9.208;2024-03-06T00:02:35;7.40;99.90
18091;DHT22;9172;49.948;9.208;2024-03-06T00:05:06;7.50;99.90
18091;DHT22;9172;49.948;9.208;2024-03-06T00:07:35;7.50;99.90
18091;DHT22;9172;49.948;9.208;2024-03-06T00:10:05;7.50;99.90
18091;DHT22;9172;49.948;9.208;2024-03-06T00:12:34;7.50;99.90
18091;DHT22;9172;49.948;9.208;2024-03-06T00:15:03;7.50;99.90
18091;DHT22;9172;49.948;9.208;2024-03-06T00:17:31;7.50;99.90
18091;DHT22;9172;49.948;9.208;2024-03-06T00:20:00;7.50;99.90
18091;DHT22;9172;49.948;9.208;2024-03-06T00:22:28;7.50;99.90
18091;DHT22;9172;49.948;9.208;2024-03-06T00:24:57;7.50;99.90
18091;DHT22;9172;49.948;9.208;2024-03-06T00:27:25;7.50;99.90
18091;DHT22;9172;49.948;9.208;2024-03-06T00:29:53;7.50;99.90
18091;DHT22;9172;49.948;9.208;2024-03-06T00:32:22;7.50;99.90
18091;DHT22;9172;49.948;9.208;2024-03-06T00:34:51;7.50;99.90
18091;DHT22;9172;49.948;9.208;2024-03-06T00:37:19;7.50;99.90
18091;DHT22;9172;49.948;9.208;2024-03-06T00:39:48;7.50;99.90
18091;DHT22;9172;49.948;9.208;2024-03-06T00:42:16;7.40;99.90
18091;DHT22;9172;49.948;9.208;2024-03-06T00:44:45;7.40;99.90
18091;DHT22;9172;49.948;9.208;2024-03-06T00:47:13;7.40;99.90
18091;DHT22;9172;49.948;9.208;2024-03-06T00:49:42;7.40;99.90
18091;DHT22;9172;49.948;9.208;2024-03-06T00:52:10;7.40;99.90
18091;DHT22;9172;49.948;9.208;2024-03-06T00:54:39;7.40;99.90
18091;DHT22;9172;49.948;9.208;2024-03-06T00:57:08;7.40;99.90
18091;DHT22;9172;49.948;9.208;2024-03-06T00:59:37;7.40;99.90
18091;DHT22;9172;49.948;9.208;2024-03-06T01:02:06;7.40;99.90
18091;DHT22;9172;49.948;9.208;2024-03-06T01:04:35;7.50;99.90
18091;DHT22;9172;49.948;9.208;2024-03-06T01:07:03;7.40;99.90
18091;DHT22;9172;49.948;9.208;2024-03-06T01:09:32;7.40;99.90
18091;DHT22;9172;49.948;9.208;2024-03-06T01:12:00;7.40;99.90
18091;DHT22;9172;49.948;9.208;2024-03-06T01:14:29;7.30;99.90
18091;DHT22;9172;49.948;9.208;2024-03-06T01:16:58;7.20;99.90
18091;DHT22;9172;49.948;9.208;2024-03-06T01:19:27;7.20;99.90
18091;DHT22;9172;49.948;9.208;2024-03-06T01:21:56;7.10;99.90
18091;DHT22;9172;49.948;9.208;2024-03-06T01:24:24;7.20;99.90
18091;DHT22;9172;49.948;9.208;2024-03-06T01:26:53;7.20;99.90
18091;DHT22;9172;49.948;9.208;2024-03-06T01:29:21;7.20;99.90
18091;DHT22;9172;49.948;9.208;2024-03-06T01:31:50;7.30;99.90
18091;DHT22;9172;49.948;9.208;2024-03-06T01:34:18;7.20;99.90
18091;DHT22;9172;49.948;9.208;2024-03-06T01:36:47;7.10;99.90
18091;DHT22;9172;49.948;9.208;2024-03-06T01:39:15;7.00;99.90
18091;DHT22;9172;49.948;9.208;2024-03-06T01:41:46;7.00;99.90
18091;DHT22;9172;49.948;9.208;2024-03-06T01:44:15;7.00;99.90
18091;DHT22;9172;49.948;9.208;2024-03-06T01:46:44;7.10;99.90
18091;DHT22;9172;49.948;9.208;2024-03-06T01:49:13;7.10;99.90
18091;DHT22;9172;49.948;9.208;2024-03-06T01:51:45;7.10;99.90
18091;DHT22;9172;49.948;9.208;2024-03-06T01:54:13;7.20;99.90
18091;DHT22;9172;49.948;9.208;2024-03-06T01:56:46;7.20;99.90
18091;DHT22;9172;49.948;9.208;2024-03-06T01:59:16;7.20;99.90
18091;DHT22;9172;49.948;9.208;2024-03-06T02:01:46;7.20;99.90
18091;DHT22;9172;49.948;9.208;2024-03-06T02:04:15;7.10;99.90
18091;DHT22;9172;49.948;9.208;2024-03-06T02:06:45;7.10;99.90
18091;DHT22;9172;49.948;9.208;2024-03-06T02:09:14;7.00;99.90
18091;DHT22;9172;49.948;9.208;2024-03-06T02:11:45;7.00;99.90
18091;DHT22;9172;49.948;9.208;2024-03-06T02:14:14;7.00;99.90
18091;DHT22;9172;49.948;9.208;2024-03-06T02:16:42;6.90;99.90
18091;DHT22;9172;49.948;9.208;2024-03-06T02:19:11;6.80;99.90
18091;DHT22;9172;49.948;9.208;2024-03-06T02:21:39;6.80;99.90
18091;DHT22;9172;49.948;9.208;2024-03-06T02:24:09;6.80;99.90
18091;DHT22;9172;49.948;9.208;2024-03-06T02:26:40;6.80;99.90
18091;DHT22;9172;49.948;9.208;2024-03-06T02:29:10;6.90;99.90
18091;DHT22;9172;49.948;9.208;2024-03-06T02:31:38;6.80;99.90
18091;DHT22;9172;49.948;9.208;2024-03-06T02:34:07;6.70;99.90
18091;DHT22;9172;49.948;9.208;2024-03-06T02:36:35;6.50;99.90
18091;DHT22;9172;49.948;9.208;2024-03-06T02:39:04;6.30;99.90
18091;DHT22;9172;49.948;9.208;2024-03-06T02:41:35;6.40;99.90
18091;DHT22;9172;49.948;9.208;2024-03-06T02:44:04;6.40;99.90
18091;DHT22;9172;49.948;9.208;2024-03-06T02:46:34;6.40;99.90
18091;DHT22;9172;49.948;9.208;2024-03-06T02:49:03;6.50;99.90
18091;DHT22;9172;49.948;9.208;2024-03-06T02:51:33;6.60;99.90
18091;DHT22;9172;49.948;9.208;2024-03-06T02:54:01;6.60;99.90
18091;DHT22;9172;49.948;9.208;2024-03-06T02:56:30;6.60;99.90
18091;DHT22;9172;49.948;9.208;2024-03-06T02:58:59;6.60;99.90
18091;DHT22;9172;49.948;9.208;2024-03-06T03:01:29;6.60;99.90
18091;DHT22;9172;49.948;9.208;2024-03-06T03:03:58;6.50;99.90
18091;DHT22;9172;49.948;9.208;2024-03-06T03:06:26;6.50;99.90
18091;DHT22;9172;49.948;9.208;2024-03-06T03:08:56;6.40;99.90
18091;DHT22;9172;49.948;9.208;2024-03-06T03:11:25;6.40;99.90
18091;DHT22;9172;49.948;9.208;2024-03-06T03:13:53;6.40;99.90
18091;DHT22;9172;49.948;9.208;2024-03-06T03:16:22;6.30;99.90
18091;DHT22;9172;49.948;9.208;2024-03-06T03:18:50;6.30;99.90
18091;DHT22;9172;49.948;9.208;2024-03-06T03:21:19;6.30;99.90
18091;DHT22;9172;49.948;9.208;2024-03-06T03:23:48;6.20;99.90
18091;DHT22;9172;49.948;9.208;2024-03-06T03:26:17;6.10;99.90
18091;DHT22;9172;49.948;9.208;2024-03-06T03:28:45;6.00;99.90
18091;DHT22;9172;49.948;9.208;2024-03-06T03:31:14;5.80;99.90
18091;DHT22;9172;49.948;9.208;2024-03-06T03:33:43;5.60;99.90
18091;DHT22;9172;49.948;9.208;2024-03-06T03:36:11;5.70;99.90
18091;DHT22;9172;49.948;9.208;2024-03-06T03:38:40;5.70;99.90
18091;DHT22;9172;49.948;9.208;2024-03-06T03:41:09;5.80;99.90
18091;DHT22;9172;49.948;9.208;2024-03-06T03:43:38;5.80;99.90
18091;DHT22;9172;49.948;9.208;2024-03-06T03:46:07;5.80;99.90
18091;DHT22;9172;49.948;9.208;2024-03-06T03:48:36;5.80;99.90
18091;DHT22;9172;49.948;9.208;2024-03-06T03:51:05;5.90;99.90
18091;DHT22;9172;49.948;9.208;2024-03-06T03:53:34;5.90;99.90
18091;DHT22;9172;49.948;9.208;2024-03-06T03:56:04;5.90;99.90
18091;DHT22;9172;49.948;9.208;2024-03-06T03:58:33;5.90;99.90
18091;DHT22;9172;49.948;9.208;2024-03-06T04:01:02;5.80;99.90
18091;DHT22;9172;49.948;9.208;2024-03-06T04:03:30;5.80;99.90
18091;DHT22;9172;49.948;9.208;2024-03-06T04:06:00;5.70;99.90
18091;DHT22;9172;49.948;9.208;2024-03-06T04:08:29;5.70;99.90
18091;DHT22;9172;49.948;9.208;2024-03-06T04:10:58;5.70;99.90
18091;DHT22;9172;49.948;9.208;2024-03-06T04:13:27;5.80;99.90
18091;DHT22;9172;49.948;9.208;2024-03-06T04:15:56;5.60;99.90
18091;DHT22;9172;49.948;9.208;2024-03-06T04:18:25;5.50;99.90
18091;DHT22;9172;49.948;9.208;2024-03-06T04:20:53;5.40;99.90
18091;DHT22;9172;49.948;9.208;2024-03-06T04:23:22;5.30;99.90
18091;DHT22;9172;49.948;9.208;2024-03-06T04:25:50;5.30;99.90
18091;DHT22;9172;49.948;9.208;2024-03-06T04:28:19;5.40;99.90
18091;DHT22;9172;49.948;9.208;2024-03-06T04:30:48;5.50;99.90
18091;DHT22;9172;49.948;9.208;2024-03-06T04:33:16;5.50;99.90
18091;DHT22;9172;49.948;9.208;2024-03-06T04:35:45;5.60;99.90
18091;DHT22;9172;49.948;9.208;2024-03-06T04:38:14;5.60;99.90
18091;DHT22;9172;49.948;9.208;2024-03-06T04:40:42;5.60;99.90
18091;DHT22;9172;49.948;9.208;2024-03-06T04:43:12;5.50;99.90
18091;DHT22;9172;49.948;9.208;2024-03-06T04:45:40;5.50;99.90
18091;DHT22;9172;49.948;9.208;2024-03-06T04:48:09;5.40;99.90
18091;DHT22;9172;49.948;9.208;2024-03-06T04:50:37;5.40;99.90
18091;DHT22;9172;49.948;9.208;2024-03-06T04:53:06;5.10;99.90
18091;DHT22;9172;49.948;9.208;2024-03-06T04:55:34;4.90;99.90
18091;DHT22;9172;49.948;9.208;2024-03-06T04:58:04;4.90;99.90
18091;DHT22;9172;49.948;9.208;2024-03-06T05:00:33;4.90;99.90
18091;DHT22;9172;49.948;9.208;2024-03-06T05:03:02;5.00;99.90
18091;DHT22;9172;49.948;9.208;2024-03-06T05:05:30;5.10;99.90
18091;DHT22;9172;49.948;9.208;2024-03-06T05:07:59;5.20;99.90
18091;DHT22;9172;49.948;9.208;2024-03-06T05:10:28;5.30;99.90
18091;DHT22;9172;49.948;9.208;2024-03-06T05:12:56;5.30;99.90
18091;DHT22;9172;49.948;9.208;2024-03-06T05:15:25;5.30;99.90
18091;DHT22;9172;49.948;9.208;2024-03-06T05:17:53;5.30;99.90
18091;DHT22;9172;49.948;9.208;2024-03-06T05:20:23;5.30;99.90
18091;DHT22;9172;49.948;9.208;2024-03-06T05:22:51;5.30;99.90
18091;DHT22;9172;49.948;9.208;2024-03-06T05:25:20;5.30;99.90
18091;DHT22;9172;49.948;9.208;2024-03-06T05:27:48;5.20;99.90
18091;DHT22;9172;49.948;9.208;2024-03-06T05:30:17;5.10;99.90
18091;DHT22;9172;49.948;9.208;2024-03-06T05:32:46;5.10;99.90
18091;DHT22;9172;49.948;9.208;2024-03-06T05:35:14;5.10;99.90
18091;DHT22;9172;49.948;9.208;2024-03-06T05:37:44;5.20;99.90
18091;DHT22;9172;49.948;9.208;2024-03-06T05:40:13;5.20;99.90
18091;DHT22;9172;49.948;9.208;2024-03-06T05:42:42;5.20;99.90
18091;DHT22;9172;49.948;9.208;2024-03-06T05:45:10;5.20;99.90
18091;DHT22;9172;49.948;9.208;2024-03-06T05:47:39;5.20;99.90
18091;DHT22;9172;49.948;9.208;2024-03-06T05:50:09;5.20;99.90
18091;DHT22;9172;49.948;9.208;2024-03-06T05:52:38;5.20;99.90
18091;DHT22;9172;49.948;9.208;2024-03-06T05:55:07;5.20;99.90
18091;DHT22;9172;49.948;9.208;2024-03-06T05:57:37;5.30;99.90
18091;DHT22;9172;49.948;9.208;2024-03-06T06:00:08;5.20;99.90
18091;DHT22;9172;49.948;9.208;2024-03-06T06:02:38;5.20;99.90
18091;DHT22;9172;49.948;9.208;2024-03-06T06:05:08;5.30;99.90
18091;DHT22;9172;49.948;9.208;2024-03-06T06:07:36;5.30;99.90
18091;DHT22;9172;49.948;9.208;2024-03-06T06:10:07;5.40;99.90
18091;DHT22;9172;49.948;9.208;2024-03-06T06:12:37;5.40;99.90
18091;DHT22;9172;49.948;9.208;2024-03-06T06:15:07;5.40;99.90
18091;DHT22;9172;49.948;9.208;2024-03-06T06:17:36;5.50;99.90
18091;DHT22;9172;49.948;9.208;2024-03-06T06:20:07;5.50;99.90
18091;DHT22;9172;49.948;9.208;2024-03-06T06:22:37;5.60;99.90
18091;DHT22;9172;49.948;9.208;2024-03-06T06:25:07;5.60;99.90
18091;DHT22;9172;49.948;9.208;2024-03-06T06:27:37;5.60;99.90
18091;DHT22;9172;49.948;9.208;2024-03-06T06:30:08;5.60;99.90
18091;DHT22;9172;49.948;9.208;2024-03-06T06:32:38;5.60;99.90
18091;DHT22;9172;49.948;9.208;2024-03-06T06:35:09;5.70;99.90
18091;DHT22;9172;49.948;9.208;2024-03-06T06:37:38;5.70;99.90
18091;DHT22;9172;49.948;9.208;2024-03-06T06:40:09;5.70;99.90
18091;DHT22;9172;49.948;9.208;2024-03-06T06:42:44;5.70;99.90
18091;DHT22;9172;49.948;9.208;2024-03-06T06:45:17;5.70;99.90
18091;DHT22;9172;49.948;9.208;2024-03-06T06:47:47;5.70;99.90
18091;DHT22;9172;49.948;9.208;2024-03-06T06:50:16;5.70;99.90
18091;DHT22;9172;49.948;9.208;2024-03-06T06:52:45;5.70;99.90
18091;DHT22;9172;49.948;9.208;2024-03-06T06:55:15;5.70;99.90
18091;DHT22;9172;49.948;9.208;2024-03-06T06:57:43;5.70;99.90
18091;DHT22;9172;49.948;9.208;2024-03-06T07:00:13;5.60;99.90
18091;DHT22;9172;49.948;9.208;2024-03-06T07:02:44;5.70;99.90
18091;DHT22;9172;49.948;9.208;2024-03-06T07:05:13;5.70;99.90
18091;DHT22;9172;49.948;9.208;2024-03-06T07:07:41;5.70;99.90
18091;DHT22;9172;49.948;9.208;2024-03-06T07:10:11;5.80;99.90
18091;DHT22;9172;49.948;9.208;2024-03-06T07:12:39;5.80;99.90
18091;DHT22;9172;49.948;9.208;2024-03-06T07:15:08;5.90;99.90
18091;DHT22;9172;49.948;9.208;2024-03-06T07:17:37;5.90;99.90
18091;DHT22;9172;49.948;9.208;2024-03-06T07:20:08;5.90;99.90
18091;DHT22;9172;49.948;9.208;2024-03-06T07:22:37;5.90;99.90
18091;DHT22;9172;49.948;9.208;2024-03-06T07:25:07;5.90;99.90
18091;DHT22;9172;49.948;9.208;2024-03-06T07:27:35;5.90;99.90
18091;DHT22;9172;49.948;9.208;2024-03-06T07:30:05;5.80;99.90
18091;DHT22;9172;49.948;9.208;2024-03-06T07:32:35;5.90;99.90
18091;DHT22;9172;49.948;9.208;2024-03-06T07:35:04;5.90;99.90
18091;DHT22;9172;49.948;9.208;2024-03-06T07:37:33;5.90;99.90
18091;DHT22;9172;49.948;9.208;2024-03-06T07:40:02;5.90;99.90
18091;DHT22;9172;49.948;9.208;2024-03-06T07:42:32;5.90;99.90
18091;DHT22;9172;49.948;9.208;2024-03-06T07:45:01;5.90;99.90
18091;DHT22;9172;49.948;9.208;2024-03-06T07:47:29;6.00;99.90
18091;DHT22;9172;49.948;9.208;2024-03-06T07:49:58;6.00;99.90
18091;DHT22;9172;49.948;9.208;2024-03-06T07:52:27;6.00;99.90
18091;DHT22;9172;49.948;9.208;2024-03-06T07:57:34;6.00;99.90
18091;DHT22;9172;49.948;9.208;2024-03-06T08:00:03;5.90;99.90
18091;DHT22;9172;49.948;9.208;2024-03-06T08:02:35;5.90;99.90
18091;DHT22;9172;49.948;9.208;2024-03-06T08:05:06;6.00;99.90
18091;DHT22;9172;49.948;9.208;2024-03-06T08:07:36;6.00;99.90
18091;DHT22;9172;49.948;9.208;2024-03-06T08:10:06;5.90;99.90
18091;DHT22;9172;49.948;9.208;2024-03-06T08:12:34;5.90;99.90
18091;DHT22;9172;49.948;9.208;2024-03-06T08:15:04;6.00;99.90
18091;DHT22;9172;49.948;9.208;2024-03-06T08:17:35;6.00;99.90
18091;DHT22;9172;49.948;9.208;2024-03-06T08:20:04;6.00;99.90
18091;DHT22;9172;49.948;9.208;2024-03-06T08:22:35;6.00;99.90
18091;DHT22;9172;49.948;9.208;2024-03-06T08:25:07;6.00;99.90
18091;DHT22;9172;49.948;9.208;2024-03-06T08:27:39;6.00;99.90
18091;DHT22;9172;49.948;9.208;2024-03-06T08:30:09;6.00;99.90
18091;DHT22;9172;49.948;9.208;2024-03-06T08:32:38;6.00;99.90
18091;DHT22;9172;49.948;9.208;2024-03-06T08:35:09;6.00;99.90
18091;DHT22;9172;49.948;9.208;2024-03-06T08:37:38;5.90;99.90
18091;DHT22;9172;49.948;9.208;2024-03-06T08:40:11;5.90;99.90
18091;DHT22;9172;49.948;9.208;2024-03-06T08:42:42;5.90;99.90
18091;DHT22;9172;49.948;9.208;2024-03-06T08:45:11;5.90;99.90
18091;DHT22;9172;49.948;9.208;2024-03-06T08:47:40;6.00;99.90
18091;DHT22;9172;49.948;9.208;2024-03-06T08:50:09;6.00;99.90
18091;DHT22;9172;49.948;9.208;2024-03-06T08:52:39;6.10;99.90
18091;DHT22;9172;49.948;9.208;2024-03-06T08:55:09;6.20;99.90
18091;DHT22;9172;49.948;9.208;2024-03-06T08:57:38;6.20;99.90
18091;DHT22;9172;49.948;9.208;2024-03-06T09:00:09;6.20;99.90
18091;DHT22;9172;49.948;9.208;2024-03-06T09:02:38;6.30;99.90
18091;DHT22;9172;49.948;9.208;2024-03-06T09:05:08;6.40;99.90
18091;DHT22;9172;49.948;9.208;2024-03-06T09:07:40;6.30;99.90
18091;DHT22;9172;49.948;9.208;2024-03-06T09:10:09;6.40;99.90
18091;DHT22;9172;49.948;9.208;2024-03-06T09:12:38;6.30;99.90
18091;DHT22;9172;49.948;9.208;2024-03-06T09:15:08;6.30;99.90
18091;DHT22;9172;49.948;9.208;2024-03-06T09:17:38;6.40;99.90
18091;DHT22;9172;49.948;9.208;2024-03-06T09:20:09;6.30;99.90
18091;DHT22;9172;49.948;9.208;2024-03-06T09:22:38;6.40;99.90
18091;DHT22;9172;49.948;9.208;2024-03-06T09:25:08;6.40;99.90
18091;DHT22;9172;49.948;9.208;2024-03-06T09:27:37;6.40;99.90
18091;DHT22;9172;49.948;9.208;2024-03-06T09:30:08;6.50;99.90
18091;DHT22;9172;49.948;9.208;2024-03-06T09:32:37;6.50;99.90
18091;DHT22;9172;49.948;9.208;2024-03-06T09:35:08;6.50;99.90
18091;DHT22;9172;49.948;9.208;2024-03-06T09:37:36;8.50;99.90
18091;DHT22;9172;49.948;9.208;2024-03-06T09:40:08;6.70;99.90
18091;DHT22;9172;49.948;9.208;2024-03-06T09:42:37;6.70;99.90
18091;DHT22;9172;49.948;9.208;2024-03-06T09:45:07;6.70;99.90
18091;DHT22;9172;49.948;9.208;2024-03-06T09:47:36;6.70;99.90
18091;DHT22;9172;49.948;9.208;2024-03-06T09:50:09;6.80;99.90
18091;DHT22;9172;49.948;9.208;2024-03-06T09:52:39;6.80;99.90
18091;DHT22;9172;49.948;9.208;2024-03-06T09:55:11;6.80;99.90
18091;DHT22;9172;49.948;9.208;2024-03-06T09:57:40;6.80;99.90
18091;DHT22;9172;49.948;9.208;2024-03-06T10:00:10;6.90;99.90
18091;DHT22;9172;49.948;9.208;2024-03-06T10:05:22;7.00;99.90
18091;DHT22;9172;49.948;9.208;2024-03-06T10:07:52;7.10;99.90
18091;DHT22;9172;49.948;9.208;2024-03-06T10:10:21;7.20;99.90
18091;DHT22;9172;49.948;9.208;2024-03-06T10:12:50;7.20;99.90
18091;DHT22;9172;49.948;9.208;2024-03-06T10:15:19;7.30;99.90
18091;DHT22;9172;49.948;9.208;2024-03-06T10:17:49;7.40;99.90
18091;DHT22;9172;49.948;9.208;2024-03-06T10:20:22;7.50;99.90
18091;DHT22;9172;49.948;9.208;2024-03-06T10:22:52;7.60;99.90
18091;DHT22;9172;49.948;9.208;2024-03-06T10:25:21;7.70;99.90
18091;DHT22;9172;49.948;9.208;2024-03-06T10:28:05;7.80;99.90
18091;DHT22;9172;49.948;9.208;2024-03-06T10:33:16;7.90;99.90
18091;DHT22;9172;49.948;9.208;2024-03-06T10:35:47;7.90;99.90
18091;DHT22;9172;49.948;9.208;2024-03-06T10:38:17;8.00;99.90
18091;DHT22;9172;49.948;9.208;2024-03-06T10:40:47;8.00;99.90
18091;DHT22;9172;49.948;9.208;2024-03-06T10:43:17;8.10;99.90
18091;DHT22;9172;49.948;9.208;2024-03-06T10:45:48;8.10;99.90
18091;DHT22;9172;49.948;9.208;2024-03-06T10:48:18;8.10;99.90
18091;DHT22;9172;49.948;9.208;2024-03-06T10:50:48;8.20;99.90
18091;DHT22;9172;49.948;9.208;2024-03-06T10:53:18;8.30;99.90
18091;DHT22;9172;49.948;9.208;2024-03-06T10:55:46;8.40;99.90
18091;DHT22;9172;49.948;9.208;2024-03-06T10:58:17;8.40;99.90
18091;DHT22;9172;49.948;9.208;2024-03-06T11:00:47;8.50;99.90
18091;DHT22;9172;49.948;9.208;2024-03-06T11:03:16;8.50;99.90
18091;DHT22;9172;49.948;9.208;2024-03-06T11:05:46;8.50;99.90
18091;DHT22;9172;49.948;9.208;2024-03-06T11:08:16;8.50;99.90
18091;DHT22;9172;49.948;9.208;2024-03-06T11:10:45;8.50;99.90
18091;DHT22;9172;49.948;9.208;2024-03-06T11:13:22;8.50;99.90
18091;DHT22;9172;49.948;9.208;2024-03-06T11:15:52;8.50;99.90
18091;DHT22;9172;49.948;9.208;2024-03-06T11:18:48;8.50;99.90
18091;DHT22;9172;49.948;9.208;2024-03-06T11:21:33;8.50;99.90
18091;DHT22;9172;49.948;9.208;2024-03-06T11:24:16;8.50;99.90
18091;DHT22;9172;49.948;9.208;2024-03-06T11:27:05;8.60;99.90
18091;DHT22;9172;49.948;9.208;2024-03-06T11:30:04;8.60;99.90
18091;DHT22;9172;49.948;9.208;2024-03-06T11:32:34;8.70;99.90
18091;DHT22;9172;49.948;9.208;2024-03-06T11:35:04;8.70;99.90
18091;DHT22;9172;49.948;9.208;2024-03-06T11:37:35;8.80;99.90
18091;DHT22;9172;49.948;9.208;2024-03-06T11:40:08;8.80;99.90
18091;DHT22;9172;49.948;9.208;2024-03-06T11:42:38;8.90;99.90
18091;DHT22;9172;49.948;9.208;2024-03-06T11:45:16;8.90;99.90
18091;DHT22;9172;49.948;9.208;2024-03-06T11:48:00;9.00;99.90
18091;DHT22;9172;49.948;9.208;2024-03-06T11:50:30;9.10;99.90
18091;DHT22;9172;49.948;9.208;2024-03-06T11:52:59;9.30;99.90
18091;DHT22;9172;49.948;9.208;2024-03-06T11:55:27;9.30;99.90
18091;DHT22;9172;49.948;9.208;2024-03-06T11:57:56;9.40;99.90
18091;DHT22;9172;49.948;9.208;2024-03-06T12:00:25;9.50;99.90
18091;DHT22;9172;49.948;9.208;2024-03-06T12:02:53;9.50;99.90
18091;DHT22;9172;49.948;9.208;2024-03-06T12:05:23;9.50;99.90
18091;DHT22;9172;49.948;9.208;2024-03-06T12:07:52;9.50;99.90
18091;DHT22;9172;49.948;9.208;2024-03-06T12:10:21;9.50;99.90
18091;DHT22;9172;49.948;9.208;2024-03-06T12:12:50;9.60;99.90
18091;DHT22;9172;49.948;9.208;2024-03-06T12:15:19;9.60;99.90
18091;DHT22;9172;49.948;9.208;2024-03-06T12:17:49;9.60;99.90
18091;DHT22;9172;49.948;9.208;2024-03-06T12:20:19;9.70;99.90
18091;DHT22;9172;49.948;9.208;2024-03-06T12:22:50;9.70;99.90
18091;DHT22;9172;49.948;9.208;2024-03-06T12:25:22;9.70;99.90
18091;DHT22;9172;49.948;9.208;2024-03-06T12:27:53;9.80;99.90
18091;DHT22;9172;49.948;9.208;2024-03-06T12:30:22;9.80;99.90
18091;DHT22;9172;49.948;9.208;2024-03-06T12:32:58;9.80;99.90
18091;DHT22;9172;49.948;9.208;2024-03-06T12:35:27;9.80;99.90
18091;DHT22;9172;49.948;9.208;2024-03-06T12:37:55;9.90;99.90
18091;DHT22;9172;49.948;9.208;2024-03-06T12:40:24;9.80;99.90
18091;DHT22;9172;49.948;9.208;2024-03-06T12:42:55;9.90;99.90
18091;DHT22;9172;49.948;9.208;2024-03-06T12:45:23;9.90;99.90
18091;DHT22;9172;49.948;9.208;2024-03-06T12:47:52;9.80;99.90
18091;DHT22;9172;49.948;9.208;2024-03-06T12:50:23;9.90;99.90
18091;DHT22;9172;49.948;9.208;2024-03-06T12:52:52;9.80;99.90
18091;DHT22;9172;49.948;9.208;2024-03-06T12:55:20;9.90;99.90
18091;DHT22;9172;49.948;9.208;2024-03-06T12:57:49;9.90;99.90
18091;DHT22;9172;49.948;9.208;2024-03-06T13:00:19;9.90;99.90
18091;DHT22;9172;49.948;9.208;2024-03-06T13:02:47;9.90;99.90
18091;DHT22;9172;49.948;9.208;2024-03-06T13:05:17;9.90;99.90
18091;DHT22;9172;49.948;9.208;2024-03-06T13:07:47;10.00;99.90
18091;DHT22;9172;49.948;9.208;2024-03-06T13:10:15;9.90;99.90
18091;DHT22;9172;49.948;9.208;2024-03-06T13:12:44;9.90;99.90
18091;DHT22;9172;49.948;9.208;2024-03-06T13:15:12;9.90;99.90
18091;DHT22;9172;49.948;9.208;2024-03-06T13:17:41;9.90;99.90
18091;DHT22;9172;49.948;9.208;2024-03-06T13:20:11;9.90;99.90
18091;DHT22;9172;49.948;9.208;2024-03-06T13:22:39;9.90;99.90
18091;DHT22;9172;49.948;9.208;2024-03-06T13:25:09;10.00;99.90
18091;DHT22;9172;49.948;9.208;2024-03-06T13:27:37;10.00;99.90
18091;DHT22;9172;49.948;9.208;2024-03-06T13:30:09;10.00;99.90
18091;DHT22;9172;49.948;9.208;2024-03-06T13:32:39;10.00;99.90
18091;DHT22;9172;49.948;9.208;2024-03-06T13:35:09;9.90;99.90
18091;DHT22;9172;49.948;9.208;2024-03-06T13:37:40;9.90;99.90
18091;DHT22;9172;49.948;9.208;2024-03-06T13:40:11;9.90;99.90
18091;DHT22;9172;49.948;9.208;2024-03-06T13:42:41;9.90;99.90
18091;DHT22;9172;49.948;9.208;2024-03-06T13:45:10;9.90;99.90
18091;DHT22;9172;49.948;9.208;2024-03-06T13:47:40;9.90;99.90
18091;DHT22;9172;49.948;9.208;2024-03-06T13:50:10;9.90;99.90
18091;DHT22;9172;49.948;9.208;2024-03-06T13:52:39;9.90;99.90
18091;DHT22;9172;49.948;9.208;2024-03-06T13:55:09;9.90;99.90
18091;DHT22;9172;49.948;9.208;2024-03-06T13:57:39;9.80;99.90
18091;DHT22;9172;49.948;9.208;2024-03-06T14:00:10;9.80;99.90
18091;DHT22;9172;49.948;9.208;2024-03-06T14:02:43;9.80;99.90
18091;DHT22;9172;49.948;9.208;2024-03-06T14:05:13;9.80;99.90
18091;DHT22;9172;49.948;9.208;2024-03-06T14:07:42;9.80;99.90
18091;DHT22;9172;49.948;9.208;2024-03-06T14:10:11;9.80;99.90
18091;DHT22;9172;49.948;9.208;2024-03-06T14:12:41;9.80;99.90
18091;DHT22;9172;49.948;9.208;2024-03-06T14:15:10;9.80;99.90
18091;DHT22;9172;49.948;9.208;2024-03-06T14:17:39;9.80;99.90
18091;DHT22;9172;49.948;9.208;2024-03-06T14:20:10;9.90;99.90
18091;DHT22;9172;49.948;9.208;2024-03-06T14:22:39;9.80;99.90
18091;DHT22;9172;49.948;9.208;2024-03-06T14:25:08;9.80;99.90
18091;DHT22;9172;49.948;9.208;2024-03-06T14:27:37;9.90;99.90
18091;DHT22;9172;49.948;9.208;2024-03-06T14:30:08;9.80;99.90
18091;DHT22;9172;49.948;9.208;2024-03-06T14:32:38;9.80;99.90
18091;DHT22;9172;49.948;9.208;2024-03-06T14:37:54;9.80;99.90
18091;DHT22;9172;49.948;9.208;2024-03-06T14:40:22;9.90;99.90
18091;DHT22;9172;49.948;9.208;2024-03-06T14:42:51;9.80;99.90
18091;DHT22;9172;49.948;9.208;2024-03-06T14:45:20;9.80;99.90
18091;DHT22;9172;49.948;9.208;2024-03-06T14:47:48;9.70;99.90
18091;DHT22;9172;49.948;9.208;2024-03-06T14:50:17;9.80;99.90
18091;DHT22;9172;49.948;9.208;2024-03-06T14:52:45;9.70;99.90
18091;DHT22;9172;49.948;9.208;2024-03-06T14:55:14;9.60;99.90
18091;DHT22;9172;49.948;9.208;2024-03-06T14:57:44;9.40;99.90
18091;DHT22;9172;49.948;9.208;2024-03-06T15:00:14;9.40;99.90
18091;DHT22;9172;49.948;9.208;2024-03-06T15:02:44;9.40;99.90
18091;DHT22;9172;49.948;9.208;2024-03-06T15:05:13;9.40;99.90
18091;DHT22;9172;49.948;9.208;2024-03-06T15:07:42;9.40;99.90
18091;DHT22;9172;49.948;9.208;2024-03-06T15:10:10;9.40;99.90
18091;DHT22;9172;49.948;9.208;2024-03-06T15:12:39;9.40;99.90
18091;DHT22;9172;49.948;9.208;2024-03-06T15:15:10;9.40;99.90
18091;DHT22;9172;49.948;9.208;2024-03-06T15:17:39;9.40;99.90
18091;DHT22;9172;49.948;9.208;2024-03-06T15:20:09;9.30;99.90
18091;DHT22;9172;49.948;9.208;2024-03-06T15:22:38;9.30;99.90
18091;DHT22;9172;49.948;9.208;2024-03-06T15:25:09;9.30;99.90
18091;DHT22;9172;49.948;9.208;2024-03-06T15:27:39;9.20;99.90
18091;DHT22;9172;49.948;9.208;2024-03-06T15:30:10;9.20;99.90
18091;DHT22;9172;49.948;9.208;2024-03-06T15:32:40;9.20;99.90
18091;DHT22;9172;49.948;9.208;2024-03-06T15:35:09;9.20;99.90
18091;DHT22;9172;49.948;9.208;2024-03-06T15:37:39;9.20;99.90
18091;DHT22;9172;49.948;9.208;2024-03-06T15:40:09;9.20;99.90
18091;DHT22;9172;49.948;9.208;2024-03-06T15:42:38;9.10;99.90
18091;DHT22;9172;49.948;9.208;2024-03-06T15:45:08;9.10;99.90
18091;DHT22;9172;49.948;9.208;2024-03-06T15:47:37;9.10;99.90
18091;DHT22;9172;49.948;9.208;2024-03-06T15:50:07;9.10;99.90
18091;DHT22;9172;49.948;9.208;2024-03-06T15:52:37;9.20;99.90
18091;DHT22;9172;49.948;9.208;2024-03-06T15:57:47;9.20;99.90
18091;DHT22;9172;49.948;9.208;2024-03-06T16:00:16;9.10;99.90
18091;DHT22;9172;49.948;9.208;2024-03-06T16:02:45;9.10;99.90
18091;DHT22;9172;49.948;9.208;2024-03-06T16:05:14;9.10;99.90
18091;DHT22;9172;49.948;9.208;2024-03-06T16:07:42;9.10;99.90
18091;DHT22;9172;49.948;9.208;2024-03-06T16:10:11;9.10;99.90
18091;DHT22;9172;49.948;9.208;2024-03-06T16:12:39;9.10;99.90
18091;DHT22;9172;49.948;9.208;2024-03-06T16:15:09;9.10;99.90
18091;DHT22;9172;49.948;9.208;2024-03-06T16:17:37;9.00;99.90
18091;DHT22;9172;49.948;9.208;2024-03-06T16:20:08;9.00;99.90
18091;DHT22;9172;49.948;9.208;2024-03-06T16:22:38;9.00;99.90
18091;DHT22;9172;49.948;9.208;2024-03-06T16:25:08;9.00;99.90
18091;DHT22;9172;49.948;9.208;2024-03-06T16:27:36;9.00;99.90
18091;DHT22;9172;49.948;9.208;2024-03-06T16:30:07;9.00;99.90